createdAt,value
2023-05-10T00:01:25.363Z,4.00
2023-05-10T00:03:53.311Z,4.90
2023-05-10T00:06:21.505Z,4.50
2023-05-10T00:08:49.367Z,4.10
2023-05-10T00:11:17.230Z,4.00
2023-05-10T00:13:45.103Z,4.30
2023-05-10T00:16:14.327Z,4.40
2023-05-10T00:18:43.083Z,4.30
2023-05-10T00:21:11.047Z,4.40
2023-05-10T00:23:39.840Z,4.50
2023-05-10T00:26:07.704Z,5.10
2023-05-10T00:28:35.672Z,5.10
2023-05-10T00:31:04.054Z,3.70
2023-05-10T00:33:32.019Z,4.50
2023-05-10T00:35:59.876Z,4.30
2023-05-10T00:38:27.672Z,4.70
2023-05-10T00:40:55.816Z,4.90
2023-05-10T00:43:23.689Z,4.80
2023-05-10T00:45:51.785Z,4.10
2023-05-10T00:48:20.098Z,4.70
2023-05-10T00:50:48.309Z,5.60
2023-05-10T00:53:16.754Z,4.30
2023-05-10T00:55:44.856Z,4.90
2023-05-10T00:58:13.385Z,5.30
2023-05-10T01:00:43.082Z,4.90
2023-05-10T01:03:12.676Z,5.10
2023-05-10T01:05:40.724Z,5.50
2023-05-10T01:08:09.817Z,4.70
2023-05-10T01:10:37.790Z,4.10
2023-05-10T01:13:06.052Z,5.20
2023-05-10T01:15:34.079Z,4.90
2023-05-10T01:18:04.335Z,4.60
2023-05-10T01:20:41.748Z,5.20
2023-05-10T01:23:31.215Z,4.60
2023-05-10T01:26:57.241Z,6.20
2023-05-10T01:30:05.076Z,4.50
2023-05-10T01:33:04.585Z,5.00
2023-05-10T01:35:49.007Z,4.30
2023-05-10T01:38:43.648Z,6.40
2023-05-10T01:41:36.241Z,5.10
2023-05-10T01:44:18.236Z,3.90
2023-05-10T01:46:59.272Z,4.80
2023-05-10T01:49:32.501Z,4.50
2023-05-10T01:52:17.062Z,5.20
2023-05-10T01:54:51.630Z,5.00
2023-05-10T01:57:22.721Z,4.30
2023-05-10T01:59:52.428Z,5.10
2023-05-10T02:02:22.454Z,4.60
2023-05-10T02:04:53.376Z,4.50
2023-05-10T02:07:22.991Z,6.40
2023-05-10T02:09:52.055Z,4.90
2023-05-10T02:12:21.391Z,5.60
2023-05-10T02:14:52.023Z,4.80
2023-05-10T02:17:21.031Z,5.20
2023-05-10T02:19:49.515Z,4.70
2023-05-10T02:22:18.371Z,4.80
2023-05-10T02:24:48.493Z,4.40
2023-05-10T02:27:18.404Z,5.30
2023-05-10T02:29:47.808Z,4.80
2023-05-10T02:32:18.149Z,5.20
2023-05-10T02:34:47.881Z,5.40
2023-05-10T02:37:17.866Z,4.30
2023-05-10T02:39:47.973Z,4.30
2023-05-10T02:42:21.305Z,4.40
2023-05-10T02:44:51.906Z,4.20
2023-05-10T02:47:20.760Z,4.40
2023-05-10T02:49:48.869Z,4.30
2023-05-10T02:52:23.789Z,4.70
2023-05-10T02:54:56.375Z,5.00
2023-05-10T02:57:28.858Z,4.80
2023-05-10T02:59:57.014Z,5.60
2023-05-10T03:02:25.109Z,5.30
2023-05-10T03:04:53.195Z,5.90
2023-05-10T03:07:22.449Z,4.70
2023-05-10T03:09:51.044Z,5.10
2023-05-10T03:12:47.490Z,4.80
2023-05-10T03:18:33.278Z,4.90
2023-05-10T03:21:07.183Z,5.20
2023-05-10T03:23:41.500Z,4.80
2023-05-10T03:26:09.933Z,5.30
2023-05-10T03:28:38.628Z,4.50
2023-05-10T03:31:08.587Z,4.30
2023-05-10T03:33:36.447Z,4.80
2023-05-10T03:36:04.961Z,5.10
2023-05-10T03:38:32.783Z,4.80
2023-05-10T03:41:00.856Z,4.70
2023-05-10T03:43:28.687Z,5.70
2023-05-10T03:45:56.432Z,4.40
2023-05-10T03:48:24.139Z,4.10
2023-05-10T03:50:52.054Z,4.30
2023-05-10T03:53:19.824Z,5.20
2023-05-10T03:55:47.591Z,5.20
2023-05-10T03:58:15.537Z,4.30
2023-05-10T04:00:46.408Z,4.70
2023-05-10T04:03:14.483Z,4.80
2023-05-10T04:05:42.430Z,5.10
2023-05-10T04:08:10.729Z,4.90
2023-05-10T04:10:38.789Z,4.60
2023-05-10T04:13:07.008Z,4.70
2023-05-10T04:15:34.802Z,4.30
2023-05-10T04:18:02.588Z,4.90
2023-05-10T04:20:30.551Z,5.10
2023-05-10T04:22:58.298Z,4.20
2023-05-10T04:25:26.062Z,4.60
2023-05-10T04:27:53.788Z,6.50
2023-05-10T04:30:21.692Z,5.20
2023-05-10T04:32:49.562Z,4.20
2023-05-10T04:35:17.552Z,4.70
2023-05-10T04:37:45.383Z,5.10
2023-05-10T04:40:13.581Z,3.80
2023-05-10T04:42:44.816Z,5.00
2023-05-10T04:45:12.681Z,4.10
2023-05-10T04:47:40.579Z,4.90
2023-05-10T04:50:09.251Z,4.30
2023-05-10T04:52:37.650Z,4.90
2023-05-10T04:55:06.025Z,5.00
2023-05-10T04:57:33.753Z,4.00
2023-05-10T05:00:01.616Z,4.30
2023-05-10T05:02:29.430Z,4.20
2023-05-10T05:04:59.001Z,4.30
2023-05-10T05:07:26.954Z,4.70
2023-05-10T05:09:54.705Z,3.70
2023-05-10T05:12:22.987Z,4.20
2023-05-10T05:14:50.746Z,4.90
2023-05-10T05:17:18.601Z,4.90
2023-05-10T05:19:46.325Z,3.70
2023-05-10T05:22:14.038Z,4.70
2023-05-10T05:24:42.673Z,4.40
2023-05-10T05:27:10.475Z,4.60
2023-05-10T05:29:38.752Z,4.20
2023-05-10T05:32:06.945Z,5.10
2023-05-10T05:34:34.892Z,4.60
2023-05-10T05:37:02.794Z,3.60
2023-05-10T05:39:30.522Z,4.00
2023-05-10T05:41:59.436Z,4.70
2023-05-10T05:44:28.934Z,3.90
2023-05-10T05:46:56.985Z,3.90
2023-05-10T05:49:24.744Z,3.60
2023-05-10T05:51:52.466Z,4.60
2023-05-10T05:54:20.487Z,4.40
2023-05-10T05:56:48.199Z,3.50
2023-05-10T05:59:16.008Z,5.00
2023-05-10T06:01:43.757Z,4.70
2023-05-10T06:04:11.565Z,3.80
2023-05-10T06:06:39.429Z,4.00
2023-05-10T06:09:07.272Z,3.70
2023-05-10T06:11:35.592Z,4.50
2023-05-10T06:14:06.020Z,9.10
2023-05-10T06:16:34.525Z,4.30
2023-05-10T06:19:03.272Z,3.80
2023-05-10T06:21:31.419Z,4.10
2023-05-10T06:24:01.281Z,4.20
2023-05-10T06:26:29.784Z,3.70
2023-05-10T06:28:57.640Z,3.60
2023-05-10T06:31:25.434Z,3.40
2023-05-10T06:33:55.297Z,3.70
2023-05-10T06:38:53.737Z,5.00
2023-05-10T06:41:24.621Z,4.50
2023-05-10T06:43:52.754Z,4.60
2023-05-10T06:46:20.535Z,3.40
2023-05-10T06:48:48.405Z,3.70
2023-05-10T06:51:16.116Z,2.70
2023-05-10T06:53:43.855Z,3.00
2023-05-10T06:56:11.658Z,2.90
2023-05-10T06:58:39.480Z,2.70
2023-05-10T07:01:07.511Z,2.90
2023-05-10T07:03:39.033Z,2.50
2023-05-10T07:06:13.267Z,2.60
2023-05-10T07:08:43.994Z,2.80
2023-05-10T07:11:11.873Z,2.50
2023-05-10T07:13:42.342Z,2.40
2023-05-10T07:16:10.186Z,2.60
2023-05-10T07:18:38.253Z,2.60
2023-05-10T07:21:06.056Z,2.60
2023-05-10T07:23:34.358Z,2.90
2023-05-10T07:26:03.305Z,2.60
2023-05-10T07:28:31.175Z,2.60
2023-05-10T07:30:58.963Z,2.30
2023-05-10T07:33:26.771Z,2.60
2023-05-10T07:35:54.611Z,2.00
2023-05-10T07:38:22.477Z,2.00
2023-05-10T07:40:50.198Z,3.90
2023-05-10T07:43:18.015Z,4.90
2023-05-10T07:45:46.121Z,3.30
2023-05-10T07:48:13.930Z,2.00
2023-05-10T07:50:41.794Z,2.10
2023-05-10T07:53:10.482Z,2.10
2023-05-10T07:55:38.426Z,2.10
2023-05-10T07:58:06.220Z,2.10
2023-05-10T08:00:34.099Z,2.30
2023-05-10T08:03:02.041Z,2.00
2023-05-10T08:05:29.917Z,1.90
2023-05-10T08:07:57.690Z,2.10
2023-05-10T08:10:25.628Z,1.90
2023-05-10T08:12:53.512Z,2.20
2023-05-10T08:15:21.587Z,2.00
2023-05-10T08:17:49.818Z,2.00
2023-05-10T08:20:19.998Z,2.10
2023-05-10T08:22:48.965Z,2.10
2023-05-10T08:25:18.514Z,2.30
2023-05-10T08:27:46.846Z,2.40
2023-05-10T08:30:15.113Z,2.20
2023-05-10T08:32:43.844Z,2.30
2023-05-10T08:35:11.524Z,2.00
2023-05-10T08:37:39.259Z,2.20
2023-05-10T08:40:08.639Z,2.00
2023-05-10T08:42:38.974Z,2.00
2023-05-10T08:45:08.633Z,1.90
2023-05-10T08:47:39.220Z,2.20
2023-05-10T08:50:08.169Z,3.00
2023-05-10T08:52:40.221Z,2.30
2023-05-10T08:55:08.646Z,2.50
2023-05-10T08:57:37.534Z,2.00
2023-05-10T09:00:06.696Z,2.60
2023-05-10T09:02:34.661Z,2.10
2023-05-10T09:05:03.882Z,2.40
2023-05-10T09:07:34.759Z,2.10
2023-05-10T09:10:06.865Z,2.20
2023-05-10T09:15:03.030Z,1.90
2023-05-10T09:17:31.261Z,2.40
2023-05-10T09:20:05.221Z,1.90
2023-05-10T09:22:33.067Z,2.70
2023-05-10T09:25:14.740Z,2.10
2023-05-10T09:27:46.450Z,2.30
2023-05-10T09:30:19.332Z,2.40
2023-05-10T09:32:49.449Z,2.40
2023-05-10T09:35:20.264Z,2.00
2023-05-10T09:37:50.493Z,2.10
2023-05-10T09:40:21.094Z,1.90
2023-05-10T09:42:59.101Z,2.20
2023-05-10T09:45:31.964Z,1.90
2023-05-10T09:48:01.808Z,1.70
2023-05-10T09:50:31.198Z,2.40
2023-05-10T09:53:00.765Z,2.00
2023-05-10T09:55:42.472Z,1.70
2023-05-10T09:58:12.940Z,2.60
2023-05-10T10:00:42.725Z,2.30
2023-05-10T10:03:21.761Z,2.10
2023-05-10T10:05:50.301Z,2.20
2023-05-10T10:08:18.401Z,2.10
2023-05-10T10:10:47.650Z,2.00
2023-05-10T10:13:16.534Z,2.20
2023-05-10T10:15:48.694Z,2.10
2023-05-10T10:18:16.731Z,1.80
2023-05-10T10:20:44.905Z,1.90
2023-05-10T10:23:12.943Z,1.60
2023-05-10T10:25:41.534Z,1.80
2023-05-10T10:28:22.855Z,2.00
2023-05-10T10:30:52.959Z,2.60
2023-05-10T10:33:58.896Z,1.90
2023-05-10T10:36:28.327Z,2.80
2023-05-10T10:39:00.748Z,1.70
2023-05-10T10:41:31.522Z,2.00
2023-05-10T10:44:27.483Z,2.40
2023-05-10T10:47:15.483Z,2.20
2023-05-10T10:49:49.490Z,1.90
2023-05-10T10:52:34.117Z,1.90
2023-05-10T10:55:06.224Z,1.90
2023-05-10T10:57:43.841Z,6.30
2023-05-10T11:00:32.400Z,6.30
2023-05-10T11:03:14.612Z,10.50
2023-05-10T11:05:50.761Z,2.70
2023-05-10T11:08:47.150Z,2.00
2023-05-10T11:11:18.656Z,1.70
2023-05-10T11:13:51.630Z,2.30
2023-05-10T11:16:28.472Z,2.20
2023-05-10T11:19:04.838Z,1.90
2023-05-10T11:21:33.765Z,2.10
2023-05-10T11:24:06.997Z,1.70
2023-05-10T11:26:36.274Z,2.90
2023-05-10T11:29:05.999Z,3.90
2023-05-10T11:31:34.194Z,3.90
2023-05-10T11:34:02.921Z,2.30
2023-05-10T11:36:37.592Z,2.40
2023-05-10T11:39:06.710Z,2.10
2023-05-10T11:41:34.462Z,2.00
2023-05-10T11:44:02.800Z,2.20
2023-05-10T11:46:30.757Z,2.00
2023-05-10T11:49:02.865Z,2.10
2023-05-10T11:51:34.101Z,2.30
2023-05-10T11:54:01.789Z,2.10
2023-05-10T11:56:29.454Z,2.10
2023-05-10T11:58:58.888Z,2.00
2023-05-10T12:01:27.553Z,2.00
2023-05-10T12:04:01.639Z,2.30
2023-05-10T12:06:36.955Z,1.90
2023-05-10T12:09:09.208Z,1.80
2023-05-10T12:11:43.999Z,2.40
2023-05-10T12:14:12.359Z,1.90
2023-05-10T12:16:40.187Z,2.10
2023-05-10T12:19:08.051Z,2.10
2023-05-10T12:21:35.856Z,2.20
2023-05-10T12:24:05.973Z,1.80
2023-05-10T12:26:33.890Z,2.20
2023-05-10T12:29:21.360Z,2.30
2023-05-10T12:31:57.077Z,1.60
2023-05-10T12:34:28.381Z,2.10
2023-05-10T12:36:56.762Z,2.00
2023-05-10T12:39:25.424Z,2.00
2023-05-10T12:41:53.690Z,1.50
2023-05-10T12:44:21.473Z,2.00
2023-05-10T12:46:49.224Z,2.10
2023-05-10T12:49:17.796Z,2.00
2023-05-10T12:51:45.446Z,1.80
2023-05-10T12:54:13.242Z,2.10
2023-05-10T12:56:41.956Z,1.90
2023-05-10T12:59:09.794Z,2.00
2023-05-10T13:01:37.528Z,2.00
2023-05-10T13:04:05.538Z,2.30
2023-05-10T13:06:33.730Z,1.70
2023-05-10T13:09:01.606Z,2.00
2023-05-10T13:11:29.405Z,2.10
2023-05-10T13:13:57.185Z,2.00
2023-05-10T13:16:24.917Z,2.00
2023-05-10T13:18:52.728Z,2.40
2023-05-10T13:21:20.492Z,1.90
2023-05-10T13:23:48.406Z,1.80
2023-05-10T13:26:16.218Z,2.10
2023-05-10T13:28:44.707Z,2.20
2023-05-10T13:31:12.767Z,2.30
2023-05-10T13:33:40.940Z,2.00
2023-05-10T13:36:08.924Z,2.20
2023-05-10T13:38:37.149Z,2.30
2023-05-10T13:41:05.036Z,2.20
2023-05-10T13:43:32.766Z,2.10
2023-05-10T13:46:00.538Z,2.00
2023-05-10T13:48:28.972Z,2.20
2023-05-10T13:50:57.218Z,2.00
2023-05-10T13:53:24.888Z,2.20
2023-05-10T13:55:52.816Z,2.60
2023-05-10T13:58:20.516Z,2.40
2023-05-10T14:00:49.146Z,2.60
2023-05-10T14:03:17.581Z,2.40
2023-05-10T14:05:46.691Z,1.90
2023-05-10T14:08:15.872Z,2.10
2023-05-10T14:10:44.409Z,2.30
2023-05-10T14:13:13.415Z,1.90
2023-05-10T14:15:41.835Z,1.90
2023-05-10T14:18:09.679Z,1.80
2023-05-10T14:20:37.934Z,2.00
2023-05-10T14:23:05.960Z,1.90
2023-05-10T14:25:34.427Z,2.00
2023-05-10T14:28:02.744Z,2.40
2023-05-10T14:30:31.926Z,1.80
2023-05-10T14:33:02.393Z,2.00
2023-05-10T14:35:32.239Z,1.80
2023-05-10T14:38:00.215Z,2.70
2023-05-10T14:40:28.716Z,3.00
2023-05-10T14:42:57.400Z,2.00
2023-05-10T14:45:25.655Z,2.00
2023-05-10T14:47:53.753Z,1.90
2023-05-10T14:50:35.754Z,2.40
2023-05-10T14:53:05.328Z,2.20
2023-05-10T14:55:33.807Z,2.20
2023-05-10T14:58:03.076Z,1.70
2023-05-10T15:00:31.712Z,2.00
2023-05-10T15:03:00.960Z,1.90
2023-05-10T15:05:32.346Z,1.70
2023-05-10T15:08:01.337Z,2.00
2023-05-10T15:10:29.633Z,2.50
2023-05-10T15:12:57.653Z,1.90
2023-05-10T15:15:25.916Z,2.20
2023-05-10T15:17:53.871Z,2.20
2023-05-10T15:20:22.277Z,2.00
2023-05-10T15:22:54.705Z,3.00
2023-05-10T15:25:24.654Z,1.80
2023-05-10T15:27:52.408Z,2.00
2023-05-10T15:30:20.311Z,1.90
2023-05-10T15:32:48.822Z,2.00
2023-05-10T15:35:18.046Z,2.40
2023-05-10T15:37:48.476Z,1.90
2023-05-10T15:40:16.754Z,1.80
2023-05-10T15:42:44.616Z,1.70
2023-05-10T15:45:12.916Z,1.80
2023-05-10T15:47:40.748Z,2.30
2023-05-10T15:50:10.045Z,2.00
2023-05-10T15:52:38.130Z,2.00
2023-05-10T15:55:12.955Z,1.90
2023-05-10T15:57:42.402Z,2.00
2023-05-10T16:00:12.111Z,1.80
2023-05-10T16:02:41.021Z,1.60
2023-05-10T16:05:09.891Z,1.80
2023-05-10T16:07:37.634Z,1.90
2023-05-10T16:10:07.063Z,1.90
2023-05-10T16:12:34.880Z,1.70
2023-05-10T16:15:02.751Z,2.40
2023-05-10T16:17:30.417Z,12.30
2023-05-10T16:19:58.258Z,4.50
2023-05-10T16:22:29.266Z,2.70
2023-05-10T16:24:58.051Z,2.20
2023-05-10T16:27:28.619Z,2.00
2023-05-10T16:29:56.549Z,2.20
2023-05-10T16:32:24.837Z,2.20
2023-05-10T16:34:54.002Z,2.00
2023-05-10T16:37:22.100Z,2.00
2023-05-10T16:39:49.775Z,2.30
2023-05-10T16:42:17.614Z,1.80
2023-05-10T16:44:46.305Z,1.80
2023-05-10T16:47:17.532Z,2.20
2023-05-10T16:49:45.752Z,1.90
2023-05-10T16:52:14.127Z,1.90
2023-05-10T16:54:42.496Z,1.70
2023-05-10T16:57:10.311Z,1.90
2023-05-10T16:59:38.412Z,2.90
2023-05-10T17:02:07.037Z,2.20
2023-05-10T17:04:35.159Z,1.90
2023-05-10T17:07:03.657Z,2.10
2023-05-10T17:09:31.464Z,1.80
2023-05-10T17:11:59.208Z,1.80
2023-05-10T17:14:27.347Z,1.80
2023-05-10T17:16:55.790Z,2.10
2023-05-10T17:19:26.275Z,2.00
2023-05-10T17:21:57.102Z,1.90
2023-05-10T17:24:25.237Z,2.20
2023-05-10T17:26:53.979Z,2.00
2023-05-10T17:29:22.628Z,2.30
2023-05-10T17:31:50.589Z,2.20
2023-05-10T17:34:18.783Z,2.20
2023-05-10T17:36:47.830Z,1.80
2023-05-10T17:39:16.122Z,2.40
2023-05-10T17:41:44.654Z,2.20
2023-05-10T17:44:13.586Z,2.70
2023-05-10T17:46:41.947Z,2.00
2023-05-10T17:49:10.824Z,2.60
2023-05-10T17:51:39.513Z,2.10
2023-05-10T17:54:07.598Z,2.10
2023-05-10T17:56:36.153Z,2.40
2023-05-10T17:59:04.150Z,2.40
2023-05-10T18:01:32.603Z,2.10
2023-05-10T18:04:00.598Z,2.30
2023-05-10T18:06:28.503Z,2.40
2023-05-10T18:08:56.447Z,2.30
2023-05-10T18:11:24.149Z,2.60
2023-05-10T18:13:51.926Z,2.30
2023-05-10T18:16:19.715Z,2.20
2023-05-10T18:18:47.592Z,2.20
2023-05-10T18:21:15.357Z,2.40
2023-05-10T18:23:43.265Z,2.20
2023-05-10T18:26:11.345Z,2.50
2023-05-10T18:28:39.175Z,2.30
2023-05-10T18:31:07.421Z,3.00
2023-05-10T18:33:35.247Z,2.80
2023-05-10T18:36:03.066Z,2.90
2023-05-10T18:38:31.189Z,2.80
2023-05-10T18:40:59.081Z,3.00
2023-05-10T18:43:26.958Z,2.90
2023-05-10T18:45:54.776Z,2.60
2023-05-10T18:48:22.556Z,3.60
2023-05-10T18:50:50.487Z,3.80
2023-05-10T18:53:18.177Z,3.30
2023-05-10T18:55:46.670Z,3.80
2023-05-10T18:58:14.687Z,4.00
2023-05-10T19:00:43.352Z,3.20
2023-05-10T19:03:11.336Z,3.40
2023-05-10T19:05:39.180Z,3.70
2023-05-10T19:08:08.177Z,3.60
2023-05-10T19:10:36.154Z,3.50
2023-05-10T19:13:03.988Z,3.60
2023-05-10T19:15:33.098Z,3.60
2023-05-10T19:18:01.666Z,4.90
2023-05-10T19:20:29.535Z,4.00
2023-05-10T19:23:09.751Z,4.00
2023-05-10T19:25:39.557Z,3.50
2023-05-10T19:28:08.157Z,3.00
2023-05-10T19:30:36.722Z,2.80
2023-05-10T19:33:05.938Z,3.10
2023-05-10T19:35:33.838Z,2.90
2023-05-10T19:38:01.741Z,3.00
2023-05-10T19:40:29.741Z,3.10
2023-05-10T19:42:57.525Z,3.20
2023-05-10T19:45:25.218Z,3.00
2023-05-10T19:47:53.369Z,3.20
2023-05-10T19:50:21.097Z,3.10
2023-05-10T19:52:49.626Z,3.20
2023-05-10T19:55:27.481Z,2.80
2023-05-10T19:57:55.518Z,3.50
2023-05-10T20:00:24.859Z,3.40
2023-05-10T20:02:53.374Z,4.00
2023-05-10T20:05:22.128Z,4.90
2023-05-10T20:07:50.525Z,4.70
2023-05-10T20:10:18.914Z,10.00
2023-05-10T20:12:53.478Z,6.00
2023-05-10T20:15:23.314Z,4.30
2023-05-10T20:17:53.320Z,3.50
2023-05-10T20:20:21.898Z,3.80
2023-05-10T20:22:50.099Z,4.10
2023-05-10T20:25:18.919Z,3.10
2023-05-10T20:27:47.057Z,3.40
2023-05-10T20:30:15.085Z,3.30
2023-05-10T20:32:43.814Z,3.00
2023-05-10T20:35:11.998Z,3.70
2023-05-10T20:37:40.284Z,3.50
2023-05-10T20:40:11.150Z,2.60
2023-05-10T20:42:39.003Z,3.00
2023-05-10T20:45:07.780Z,3.10
2023-05-10T20:47:36.274Z,3.20
2023-05-10T20:50:04.646Z,2.60
2023-05-10T20:52:32.512Z,3.20
2023-05-10T20:55:00.381Z,3.30
2023-05-10T20:57:28.115Z,3.00
2023-05-10T20:59:55.952Z,3.10
2023-05-10T21:02:23.871Z,3.00
2023-05-10T21:04:51.953Z,2.40
2023-05-10T21:07:19.838Z,2.80
2023-05-10T21:09:47.475Z,3.10
2023-05-10T21:12:15.465Z,3.20
2023-05-10T21:14:44.410Z,3.60
2023-05-10T21:17:13.208Z,4.60
2023-05-10T21:19:43.972Z,4.20
2023-05-10T21:22:12.236Z,3.30
2023-05-10T21:24:40.332Z,3.20
2023-05-10T21:27:09.128Z,2.60
2023-05-10T21:29:37.867Z,3.10
2023-05-10T21:32:06.507Z,3.00
2023-05-10T21:34:34.780Z,2.90
2023-05-10T21:37:02.984Z,2.80
2023-05-10T21:39:31.147Z,3.00
2023-05-10T21:42:00.465Z,2.90
2023-05-10T21:44:28.782Z,3.70
2023-05-10T21:46:56.709Z,3.20
2023-05-10T21:49:25.136Z,2.70
2023-05-10T21:51:53.492Z,2.90
2023-05-10T21:54:23.041Z,3.70
2023-05-10T21:56:50.732Z,3.00
2023-05-10T21:59:18.640Z,3.40
2023-05-10T22:01:46.755Z,5.80
2023-05-10T22:04:15.225Z,3.20
2023-05-10T22:06:43.975Z,3.00
2023-05-10T22:09:12.060Z,3.40
2023-05-10T22:11:40.485Z,2.50
2023-05-10T22:14:08.684Z,2.90
2023-05-10T22:16:36.469Z,3.40
2023-05-10T22:19:04.537Z,3.00
2023-05-10T22:21:33.327Z,3.30
2023-05-10T22:24:01.770Z,2.70
2023-05-10T22:26:29.945Z,3.20
2023-05-10T22:28:58.629Z,3.00
2023-05-10T22:31:27.199Z,2.90
2023-05-10T22:33:55.473Z,2.40
2023-05-10T22:36:23.807Z,2.60
2023-05-10T22:38:51.950Z,2.70
2023-05-10T22:41:20.148Z,2.80
2023-05-10T22:43:48.564Z,2.80
2023-05-10T22:46:16.609Z,3.00
2023-05-10T22:48:44.654Z,3.00
2023-05-10T22:51:13.447Z,3.30
2023-05-10T22:53:41.655Z,3.20
2023-05-10T22:56:10.090Z,3.10
2023-05-10T22:58:38.256Z,2.70
2023-05-10T23:01:06.530Z,3.00
2023-05-10T23:03:34.739Z,2.10
2023-05-10T23:06:03.116Z,3.40
2023-05-10T23:08:31.190Z,2.90
2023-05-10T23:10:59.325Z,2.50
2023-05-10T23:13:27.913Z,3.80
2023-05-10T23:15:56.317Z,3.20
2023-05-10T23:18:24.542Z,2.60
2023-05-10T23:20:53.419Z,3.30
2023-05-10T23:23:22.759Z,2.30
2023-05-10T23:25:51.834Z,2.50
2023-05-10T23:28:20.130Z,3.20
2023-05-10T23:30:48.265Z,2.60
2023-05-10T23:33:16.121Z,2.40
2023-05-10T23:35:44.129Z,2.70
2023-05-10T23:38:12.515Z,2.40
2023-05-10T23:40:40.653Z,2.30
2023-05-10T23:43:08.782Z,2.80
2023-05-10T23:45:36.902Z,2.80
2023-05-10T23:48:04.887Z,2.60
2023-05-10T23:50:33.009Z,2.50
2023-05-10T23:53:02.231Z,2.50
2023-05-10T23:55:30.550Z,2.80
2023-05-10T23:57:58.850Z,2.70
